sensor_id;sensor_type;location;lat;lon;timestamp;P1;durP1;ratioP1;P2;durP2;ratioP2
40471;SDS011;26174;42.908;23.800;2023-03-30T00:01:46;17.33;;;7.28;;
40471;SDS011;26174;42.908;23.800;2023-03-30T00:04:12;15.25;;;5.47;;
40471;SDS011;26174;42.908;23.800;2023-03-30T00:06:38;12.02;;;4.97;;
40471;SDS011;26174;42.908;23.800;2023-03-30T00:09:06;12.18;;;5.20;;
40471;SDS011;26174;42.908;23.800;2023-03-30T00:11:31;14.35;;;6.00;;
40471;SDS011;26174;42.908;23.800;2023-03-30T00:13:58;17.45;;;5.97;;
40471;SDS011;26174;42.908;23.800;2023-03-30T00:16:24;15.80;;;6.05;;
40471;SDS011;26174;42.908;23.800;2023-03-30T00:18:50;12.45;;;5.15;;
40471;SDS011;26174;42.908;23.800;2023-03-30T00:21:15;17.35;;;5.95;;
40471;SDS011;26174;42.908;23.800;2023-03-30T00:23:42;11.43;;;3.92;;
40471;SDS011;26174;42.908;23.800;2023-03-30T00:26:10;16.88;;;5.78;;
40471;SDS011;26174;42.908;23.800;2023-03-30T00:28:37;11.30;;;6.03;;
40471;SDS011;26174;42.908;23.800;2023-03-30T00:31:02;16.10;;;5.57;;
40471;SDS011;26174;42.908;23.800;2023-03-30T00:33:28;15.88;;;6.10;;
40471;SDS011;26174;42.908;23.800;2023-03-30T00:35:55;14.13;;;6.22;;
40471;SDS011;26174;42.908;23.800;2023-03-30T00:38:21;10.98;;;5.32;;
40471;SDS011;26174;42.908;23.800;2023-03-30T00:40:51;11.80;;;5.43;;
40471;SDS011;26174;42.908;23.800;2023-03-30T00:43:21;12.68;;;5.78;;
40471;SDS011;26174;42.908;23.800;2023-03-30T00:45:47;20.73;;;6.13;;
40471;SDS011;26174;42.908;23.800;2023-03-30T00:48:17;14.70;;;6.07;;
40471;SDS011;26174;42.908;23.800;2023-03-30T00:50:55;15.45;;;6.15;;
40471;SDS011;26174;42.908;23.800;2023-03-30T00:53:34;16.10;;;5.00;;
40471;SDS011;26174;42.908;23.800;2023-03-30T00:56:01;13.23;;;5.85;;
40471;SDS011;26174;42.908;23.800;2023-03-30T00:58:27;13.90;;;6.15;;
40471;SDS011;26174;42.908;23.800;2023-03-30T01:00:54;14.48;;;6.22;;
40471;SDS011;26174;42.908;23.800;2023-03-30T01:06:26;14.20;;;5.65;;
40471;SDS011;26174;42.908;23.800;2023-03-30T01:08:54;14.15;;;5.60;;
40471;SDS011;26174;42.908;23.800;2023-03-30T01:11:20;16.63;;;5.82;;
40471;SDS011;26174;42.908;23.800;2023-03-30T01:13:47;10.77;;;5.45;;
40471;SDS011;26174;42.908;23.800;2023-03-30T01:19:03;15.13;;;5.60;;
40471;SDS011;26174;42.908;23.800;2023-03-30T01:22:02;12.77;;;4.97;;
40471;SDS011;26174;42.908;23.800;2023-03-30T01:34:16;12.50;;;5.00;;
40471;SDS011;26174;42.908;23.800;2023-03-30T01:47:21;15.20;;;6.72;;
40471;SDS011;26174;42.908;23.800;2023-03-30T01:52:41;16.50;;;7.95;;
40471;SDS011;26174;42.908;23.800;2023-03-30T01:55:35;17.25;;;7.18;;
40471;SDS011;26174;42.908;23.800;2023-03-30T01:58:08;17.20;;;7.25;;
40471;SDS011;26174;42.908;23.800;2023-03-30T02:00:36;14.73;;;7.05;;
40471;SDS011;26174;42.908;23.800;2023-03-30T02:03:15;15.75;;;6.63;;
40471;SDS011;26174;42.908;23.800;2023-03-30T02:05:44;15.52;;;6.85;;
40471;SDS011;26174;42.908;23.800;2023-03-30T02:08:12;23.23;;;6.78;;
40471;SDS011;26174;42.908;23.800;2023-03-30T02:10:43;15.20;;;6.70;;
40471;SDS011;26174;42.908;23.800;2023-03-30T02:13:09;22.83;;;8.05;;
40471;SDS011;26174;42.908;23.800;2023-03-30T02:15:37;21.45;;;8.73;;
40471;SDS011;26174;42.908;23.800;2023-03-30T02:18:05;19.55;;;9.13;;
40471;SDS011;26174;42.908;23.800;2023-03-30T02:20:31;19.48;;;7.65;;
40471;SDS011;26174;42.908;23.800;2023-03-30T02:22:58;19.60;;;6.75;;
40471;SDS011;26174;42.908;23.800;2023-03-30T02:25:25;12.95;;;6.43;;
40471;SDS011;26174;42.908;23.800;2023-03-30T02:27:51;15.38;;;6.57;;
40471;SDS011;26174;42.908;23.800;2023-03-30T02:30:17;13.70;;;6.40;;
40471;SDS011;26174;42.908;23.800;2023-03-30T02:32:44;11.80;;;5.20;;
40471;SDS011;26174;42.908;23.800;2023-03-30T02:51:29;9.73;;;4.85;;
40471;SDS011;26174;42.908;23.800;2023-03-30T02:56:48;19.88;;;7.32;;
40471;SDS011;26174;42.908;23.800;2023-03-30T02:59:18;20.75;;;7.10;;
40471;SDS011;26174;42.908;23.800;2023-03-30T03:04:15;25.67;;;6.53;;
40471;SDS011;26174;42.908;23.800;2023-03-30T03:06:41;19.13;;;6.20;;
40471;SDS011;26174;42.908;23.800;2023-03-30T03:09:07;13.65;;;5.28;;
40471;SDS011;26174;42.908;23.800;2023-03-30T03:11:33;13.90;;;6.30;;
40471;SDS011;26174;42.908;23.800;2023-03-30T03:13:59;18.35;;;7.90;;
40471;SDS011;26174;42.908;23.800;2023-03-30T03:16:24;21.23;;;8.00;;
40471;SDS011;26174;42.908;23.800;2023-03-30T03:18:50;16.00;;;7.40;;
40471;SDS011;26174;42.908;23.800;2023-03-30T03:21:16;18.17;;;8.20;;
40471;SDS011;26174;42.908;23.800;2023-03-30T03:23:42;22.98;;;8.85;;
40471;SDS011;26174;42.908;23.800;2023-03-30T03:26:08;23.33;;;8.98;;
40471;SDS011;26174;42.908;23.800;2023-03-30T03:28:34;47.15;;;14.35;;
40471;SDS011;26174;42.908;23.800;2023-03-30T03:31:00;41.25;;;12.65;;
40471;SDS011;26174;42.908;23.800;2023-03-30T03:36:10;20.08;;;8.68;;
40471;SDS011;26174;42.908;23.800;2023-03-30T03:38:36;24.55;;;11.82;;
40471;SDS011;26174;42.908;23.800;2023-03-30T03:41:02;24.88;;;9.32;;
40471;SDS011;26174;42.908;23.800;2023-03-30T03:43:28;31.20;;;10.23;;
40471;SDS011;26174;42.908;23.800;2023-03-30T03:45:53;28.63;;;9.20;;
40471;SDS011;26174;42.908;23.800;2023-03-30T03:48:20;21.60;;;7.55;;
40471;SDS011;26174;42.908;23.800;2023-03-30T03:50:50;23.42;;;8.70;;
40471;SDS011;26174;42.908;23.800;2023-03-30T03:53:17;26.45;;;10.88;;
40471;SDS011;26174;42.908;23.800;2023-03-30T03:55:43;31.52;;;12.52;;
40471;SDS011;26174;42.908;23.800;2023-03-30T03:58:09;29.90;;;10.40;;
40471;SDS011;26174;42.908;23.800;2023-03-30T04:00:34;22.00;;;8.45;;
40471;SDS011;26174;42.908;23.800;2023-03-30T04:03:00;19.83;;;9.15;;
40471;SDS011;26174;42.908;23.800;2023-03-30T04:05:26;26.17;;;9.20;;
40471;SDS011;26174;42.908;23.800;2023-03-30T04:07:51;22.95;;;7.13;;
40471;SDS011;26174;42.908;23.800;2023-03-30T04:10:20;17.67;;;6.90;;
40471;SDS011;26174;42.908;23.800;2023-03-30T04:12:46;12.18;;;5.93;;
40471;SDS011;26174;42.908;23.800;2023-03-30T04:15:12;16.45;;;6.65;;
40471;SDS011;26174;42.908;23.800;2023-03-30T04:17:39;18.25;;;7.78;;
40471;SDS011;26174;42.908;23.800;2023-03-30T04:20:07;24.95;;;7.80;;
40471;SDS011;26174;42.908;23.800;2023-03-30T04:22:36;16.17;;;7.03;;
40471;SDS011;26174;42.908;23.800;2023-03-30T04:25:06;19.90;;;7.47;;
40471;SDS011;26174;42.908;23.800;2023-03-30T04:27:36;24.10;;;7.93;;
40471;SDS011;26174;42.908;23.800;2023-03-30T04:30:05;22.00;;;8.43;;
40471;SDS011;26174;42.908;23.800;2023-03-30T04:32:31;21.48;;;7.95;;
40471;SDS011;26174;42.908;23.800;2023-03-30T04:35:11;22.65;;;8.20;;
40471;SDS011;26174;42.908;23.800;2023-03-30T04:37:38;21.63;;;9.57;;
40471;SDS011;26174;42.908;23.800;2023-03-30T04:40:06;29.42;;;10.02;;
40471;SDS011;26174;42.908;23.800;2023-03-30T04:42:37;30.13;;;11.75;;
40471;SDS011;26174;42.908;23.800;2023-03-30T04:45:03;51.97;;;19.08;;
40471;SDS011;26174;42.908;23.800;2023-03-30T04:47:30;67.93;;;27.70;;
40471;SDS011;26174;42.908;23.800;2023-03-30T04:49:56;35.42;;;12.68;;
40471;SDS011;26174;42.908;23.800;2023-03-30T04:52:21;34.78;;;12.70;;
40471;SDS011;26174;42.908;23.800;2023-03-30T04:54:47;30.70;;;12.80;;
40471;SDS011;26174;42.908;23.800;2023-03-30T04:57:13;26.15;;;13.02;;
40471;SDS011;26174;42.908;23.800;2023-03-30T04:59:40;27.38;;;11.93;;
40471;SDS011;26174;42.908;23.800;2023-03-30T05:02:06;33.72;;;13.38;;
40471;SDS011;26174;42.908;23.800;2023-03-30T05:04:33;44.20;;;19.33;;
40471;SDS011;26174;42.908;23.800;2023-03-30T05:06:59;40.85;;;17.00;;
40471;SDS011;26174;42.908;23.800;2023-03-30T05:09:25;37.22;;;16.55;;
40471;SDS011;26174;42.908;23.800;2023-03-30T05:11:51;32.45;;;12.98;;
40471;SDS011;26174;42.908;23.800;2023-03-30T05:14:17;37.92;;;16.42;;
40471;SDS011;26174;42.908;23.800;2023-03-30T05:16:42;30.33;;;9.80;;
40471;SDS011;26174;42.908;23.800;2023-03-30T05:19:08;34.35;;;13.95;;
40471;SDS011;26174;42.908;23.800;2023-03-30T05:21:34;49.88;;;18.02;;
40471;SDS011;26174;42.908;23.800;2023-03-30T05:23:59;71.53;;;28.10;;
40471;SDS011;26174;42.908;23.800;2023-03-30T05:26:25;66.38;;;28.02;;
40471;SDS011;26174;42.908;23.800;2023-03-30T05:28:52;63.33;;;21.83;;
40471;SDS011;26174;42.908;23.800;2023-03-30T05:31:17;48.05;;;20.35;;
40471;SDS011;26174;42.908;23.800;2023-03-30T05:33:43;49.45;;;16.70;;
40471;SDS011;26174;42.908;23.800;2023-03-30T05:36:09;51.42;;;18.10;;
40471;SDS011;26174;42.908;23.800;2023-03-30T05:38:35;65.45;;;18.75;;
40471;SDS011;26174;42.908;23.800;2023-03-30T05:41:01;43.35;;;16.67;;
40471;SDS011;26174;42.908;23.800;2023-03-30T05:43:28;36.15;;;14.85;;
40471;SDS011;26174;42.908;23.800;2023-03-30T05:45:54;32.20;;;13.98;;
40471;SDS011;26174;42.908;23.800;2023-03-30T05:48:21;31.35;;;15.10;;
40471;SDS011;26174;42.908;23.800;2023-03-30T05:50:47;44.88;;;14.73;;
40471;SDS011;26174;42.908;23.800;2023-03-30T05:53:12;39.45;;;16.92;;
40471;SDS011;26174;42.908;23.800;2023-03-30T05:55:38;54.50;;;16.70;;
40471;SDS011;26174;42.908;23.800;2023-03-30T05:58:06;54.10;;;19.38;;
40471;SDS011;26174;42.908;23.800;2023-03-30T06:00:32;48.28;;;17.55;;
40471;SDS011;26174;42.908;23.800;2023-03-30T06:03:00;58.65;;;19.42;;
40471;SDS011;26174;42.908;23.800;2023-03-30T06:05:26;50.72;;;18.45;;
40471;SDS011;26174;42.908;23.800;2023-03-30T06:07:51;43.20;;;18.85;;
40471;SDS011;26174;42.908;23.800;2023-03-30T06:10:18;26.55;;;13.20;;
40471;SDS011;26174;42.908;23.800;2023-03-30T06:12:43;28.52;;;12.80;;
40471;SDS011;26174;42.908;23.800;2023-03-30T06:15:09;28.05;;;12.38;;
40471;SDS011;26174;42.908;23.800;2023-03-30T06:17:35;34.38;;;12.05;;
40471;SDS011;26174;42.908;23.800;2023-03-30T06:20:02;33.30;;;12.57;;
40471;SDS011;26174;42.908;23.800;2023-03-30T06:22:34;24.23;;;11.63;;
40471;SDS011;26174;42.908;23.800;2023-03-30T06:24:59;25.17;;;12.00;;
40471;SDS011;26174;42.908;23.800;2023-03-30T06:27:25;31.08;;;12.65;;
40471;SDS011;26174;42.908;23.800;2023-03-30T06:29:51;28.27;;;13.00;;
40471;SDS011;26174;42.908;23.800;2023-03-30T06:32:19;30.25;;;13.38;;
40471;SDS011;26174;42.908;23.800;2023-03-30T06:34:47;30.30;;;13.60;;
40471;SDS011;26174;42.908;23.800;2023-03-30T06:37:13;34.97;;;14.25;;
40471;SDS011;26174;42.908;23.800;2023-03-30T06:39:39;36.65;;;15.23;;
40471;SDS011;26174;42.908;23.800;2023-03-30T06:42:05;43.53;;;15.68;;
40471;SDS011;26174;42.908;23.800;2023-03-30T06:44:31;37.90;;;13.48;;
40471;SDS011;26174;42.908;23.800;2023-03-30T06:46:58;35.35;;;14.32;;
40471;SDS011;26174;42.908;23.800;2023-03-30T06:49:33;22.75;;;10.13;;
40471;SDS011;26174;42.908;23.800;2023-03-30T06:51:58;28.35;;;10.10;;
40471;SDS011;26174;42.908;23.800;2023-03-30T06:54:28;22.83;;;9.82;;
40471;SDS011;26174;42.908;23.800;2023-03-30T06:56:54;18.48;;;9.45;;
40471;SDS011;26174;42.908;23.800;2023-03-30T06:59:19;21.40;;;10.05;;
40471;SDS011;26174;42.908;23.800;2023-03-30T07:01:45;21.77;;;10.10;;
40471;SDS011;26174;42.908;23.800;2023-03-30T07:04:11;21.38;;;9.68;;
40471;SDS011;26174;42.908;23.800;2023-03-30T07:06:36;19.73;;;8.80;;
40471;SDS011;26174;42.908;23.800;2023-03-30T07:09:05;32.28;;;9.95;;
40471;SDS011;26174;42.908;23.800;2023-03-30T07:11:31;20.65;;;8.85;;
40471;SDS011;26174;42.908;23.800;2023-03-30T07:13:59;17.08;;;8.35;;
40471;SDS011;26174;42.908;23.800;2023-03-30T07:18:58;18.80;;;7.20;;
40471;SDS011;26174;42.908;23.800;2023-03-30T07:21:32;16.15;;;6.47;;
40471;SDS011;26174;42.908;23.800;2023-03-30T07:23:58;13.18;;;6.28;;
40471;SDS011;26174;42.908;23.800;2023-03-30T07:26:29;12.05;;;5.63;;
40471;SDS011;26174;42.908;23.800;2023-03-30T07:28:55;9.15;;;4.95;;
40471;SDS011;26174;42.908;23.800;2023-03-30T07:31:21;13.98;;;6.90;;
40471;SDS011;26174;42.908;23.800;2023-03-30T07:33:48;13.35;;;5.88;;
40471;SDS011;26174;42.908;23.800;2023-03-30T07:36:14;11.30;;;5.78;;
40471;SDS011;26174;42.908;23.800;2023-03-30T07:38:40;13.02;;;5.75;;
40471;SDS011;26174;42.908;23.800;2023-03-30T07:41:07;14.25;;;6.50;;
40471;SDS011;26174;42.908;23.800;2023-03-30T07:43:33;16.50;;;7.35;;
40471;SDS011;26174;42.908;23.800;2023-03-30T07:45:59;17.50;;;7.63;;
40471;SDS011;26174;42.908;23.800;2023-03-30T07:48:25;59.40;;;26.48;;
40471;SDS011;26174;42.908;23.800;2023-03-30T07:50:57;14.27;;;7.45;;
40471;SDS011;26174;42.908;23.800;2023-03-30T07:53:34;13.80;;;5.82;;
40471;SDS011;26174;42.908;23.800;2023-03-30T07:56:00;10.48;;;4.57;;
40471;SDS011;26174;42.908;23.800;2023-03-30T07:58:26;15.57;;;6.70;;
40471;SDS011;26174;42.908;23.800;2023-03-30T08:00:53;10.48;;;5.18;;
40471;SDS011;26174;42.908;23.800;2023-03-30T08:03:19;10.25;;;4.22;;
40471;SDS011;26174;42.908;23.800;2023-03-30T08:05:56;27.50;;;8.73;;
40471;SDS011;26174;42.908;23.800;2023-03-30T08:08:24;36.75;;;12.25;;
40471;SDS011;26174;42.908;23.800;2023-03-30T08:10:50;36.50;;;11.20;;
40471;SDS011;26174;42.908;23.800;2023-03-30T08:13:16;29.27;;;6.60;;
40471;SDS011;26174;42.908;23.800;2023-03-30T08:15:42;16.23;;;5.63;;
40471;SDS011;26174;42.908;23.800;2023-03-30T08:18:07;19.88;;;10.05;;
40471;SDS011;26174;42.908;23.800;2023-03-30T08:20:34;9.50;;;5.30;;
40471;SDS011;26174;42.908;23.800;2023-03-30T08:23:01;71.82;;;24.83;;
40471;SDS011;26174;42.908;23.800;2023-03-30T08:25:27;14.40;;;7.53;;
40471;SDS011;26174;42.908;23.800;2023-03-30T08:27:52;22.35;;;7.55;;
40471;SDS011;26174;42.908;23.800;2023-03-30T08:30:18;21.27;;;9.50;;
40471;SDS011;26174;42.908;23.800;2023-03-30T08:32:43;24.08;;;9.43;;
40471;SDS011;26174;42.908;23.800;2023-03-30T08:35:09;19.38;;;10.18;;
40471;SDS011;26174;42.908;23.800;2023-03-30T08:37:37;24.00;;;9.15;;
40471;SDS011;26174;42.908;23.800;2023-03-30T08:40:03;24.67;;;10.73;;
40471;SDS011;26174;42.908;23.800;2023-03-30T08:45:19;32.00;;;11.50;;
40471;SDS011;26174;42.908;23.800;2023-03-30T08:47:46;15.05;;;8.30;;
40471;SDS011;26174;42.908;23.800;2023-03-30T08:50:15;15.55;;;7.68;;
40471;SDS011;26174;42.908;23.800;2023-03-30T08:52:45;19.70;;;8.35;;
40471;SDS011;26174;42.908;23.800;2023-03-30T09:01:22;14.45;;;6.35;;
40471;SDS011;26174;42.908;23.800;2023-03-30T09:06:51;19.90;;;6.50;;
40471;SDS011;26174;42.908;23.800;2023-03-30T09:09:18;19.90;;;6.28;;
40471;SDS011;26174;42.908;23.800;2023-03-30T09:11:52;11.23;;;6.25;;
40471;SDS011;26174;42.908;23.800;2023-03-30T09:14:24;18.42;;;6.30;;
40471;SDS011;26174;42.908;23.800;2023-03-30T09:16:58;7.55;;;4.82;;
40471;SDS011;26174;42.908;23.800;2023-03-30T09:22:39;11.55;;;5.72;;
40471;SDS011;26174;42.908;23.800;2023-03-30T09:30:47;14.27;;;5.13;;
40471;SDS011;26174;42.908;23.800;2023-03-30T09:35:59;16.52;;;5.93;;
40471;SDS011;26174;42.908;23.800;2023-03-30T09:38:29;4.93;;;3.20;;
40471;SDS011;26174;42.908;23.800;2023-03-30T09:41:02;7.15;;;3.78;;
40471;SDS011;26174;42.908;23.800;2023-03-30T09:43:41;3.42;;;2.50;;
40471;SDS011;26174;42.908;23.800;2023-03-30T09:46:10;3.50;;;2.50;;
40471;SDS011;26174;42.908;23.800;2023-03-30T09:48:41;70.68;;;38.55;;
40471;SDS011;26174;42.908;23.800;2023-03-30T09:51:15;4.18;;;1.83;;
40471;SDS011;26174;42.908;23.800;2023-03-30T09:53:46;4.68;;;2.13;;
40471;SDS011;26174;42.908;23.800;2023-03-30T09:56:20;4.90;;;2.38;;
40471;SDS011;26174;42.908;23.800;2023-03-30T09:58:52;4.75;;;2.70;;
40471;SDS011;26174;42.908;23.800;2023-03-30T10:01:18;9.63;;;2.55;;
40471;SDS011;26174;42.908;23.800;2023-03-30T10:04:05;6.07;;;2.22;;
40471;SDS011;26174;42.908;23.800;2023-03-30T10:06:36;4.20;;;2.10;;
40471;SDS011;26174;42.908;23.800;2023-03-30T10:09:04;6.10;;;3.17;;
40471;SDS011;26174;42.908;23.800;2023-03-30T10:11:43;9.27;;;3.42;;
40471;SDS011;26174;42.908;23.800;2023-03-30T10:16:45;5.07;;;2.10;;
40471;SDS011;26174;42.908;23.800;2023-03-30T10:19:19;3.38;;;1.73;;
40471;SDS011;26174;42.908;23.800;2023-03-30T10:21:46;10.23;;;3.83;;
40471;SDS011;26174;42.908;23.800;2023-03-30T10:24:19;9.57;;;2.75;;
40471;SDS011;26174;42.908;23.800;2023-03-30T10:26:57;13.90;;;4.47;;
40471;SDS011;26174;42.908;23.800;2023-03-30T10:29:28;4.70;;;2.47;;
40471;SDS011;26174;42.908;23.800;2023-03-30T10:32:02;11.57;;;3.15;;
40471;SDS011;26174;42.908;23.800;2023-03-30T10:34:38;5.03;;;1.92;;
40471;SDS011;26174;42.908;23.800;2023-03-30T10:37:17;3.35;;;2.08;;
40471;SDS011;26174;42.908;23.800;2023-03-30T10:39:50;4.45;;;1.80;;
40471;SDS011;26174;42.908;23.800;2023-03-30T10:42:17;8.48;;;2.72;;
40471;SDS011;26174;42.908;23.800;2023-03-30T10:44:50;20.98;;;7.50;;
40471;SDS011;26174;42.908;23.800;2023-03-30T10:47:24;4.85;;;1.80;;
40471;SDS011;26174;42.908;23.800;2023-03-30T10:50:26;2.97;;;2.17;;
40471;SDS011;26174;42.908;23.800;2023-03-30T11:04:22;4.72;;;1.83;;
40471;SDS011;26174;42.908;23.800;2023-03-30T11:07:03;8.45;;;2.50;;
40471;SDS011;26174;42.908;23.800;2023-03-30T11:09:33;2.35;;;1.60;;
40471;SDS011;26174;42.908;23.800;2023-03-30T11:12:04;1.70;;;1.40;;
40471;SDS011;26174;42.908;23.800;2023-03-30T11:14:43;2.55;;;1.73;;
40471;SDS011;26174;42.908;23.800;2023-03-30T11:17:15;2.95;;;1.48;;
40471;SDS011;26174;42.908;23.800;2023-03-30T11:19:56;44.38;;;6.32;;
40471;SDS011;26174;42.908;23.800;2023-03-30T11:25:08;4.75;;;2.33;;
40471;SDS011;26174;42.908;23.800;2023-03-30T11:27:49;9.75;;;1.80;;
40471;SDS011;26174;42.908;23.800;2023-03-30T11:30:34;5.38;;;2.05;;
40471;SDS011;26174;42.908;23.800;2023-03-30T11:33:05;3.28;;;1.48;;
40471;SDS011;26174;42.908;23.800;2023-03-30T11:41:05;4.85;;;2.08;;
40471;SDS011;26174;42.908;23.800;2023-03-30T11:43:33;7.00;;;2.00;;
40471;SDS011;26174;42.908;23.800;2023-03-30T11:46:04;14.63;;;2.95;;
40471;SDS011;26174;42.908;23.800;2023-03-30T11:48:37;5.70;;;2.20;;
40471;SDS011;26174;42.908;23.800;2023-03-30T11:51:37;13.43;;;3.35;;
40471;SDS011;26174;42.908;23.800;2023-03-30T12:02:47;4.18;;;2.22;;
40471;SDS011;26174;42.908;23.800;2023-03-30T12:05:28;2.67;;;1.50;;
40471;SDS011;26174;42.908;23.800;2023-03-30T12:10:31;3.08;;;1.70;;
40471;SDS011;26174;42.908;23.800;2023-03-30T12:13:01;1.85;;;1.50;;
40471;SDS011;26174;42.908;23.800;2023-03-30T12:15:50;3.33;;;1.63;;
40471;SDS011;26174;42.908;23.800;2023-03-30T12:18:26;2.35;;;1.50;;
40471;SDS011;26174;42.908;23.800;2023-03-30T12:26:57;3.83;;;2.08;;
40471;SDS011;26174;42.908;23.800;2023-03-30T12:29:23;4.32;;;2.50;;
40471;SDS011;26174;42.908;23.800;2023-03-30T12:34:19;9.25;;;2.28;;
40471;SDS011;26174;42.908;23.800;2023-03-30T12:36:47;4.10;;;2.40;;
40471;SDS011;26174;42.908;23.800;2023-03-30T12:41:48;2.22;;;1.48;;
40471;SDS011;26174;42.908;23.800;2023-03-30T13:05:40;6.80;;;1.88;;
40471;SDS011;26174;42.908;23.800;2023-03-30T13:08:40;4.40;;;1.63;;
40471;SDS011;26174;42.908;23.800;2023-03-30T13:11:09;6.05;;;2.00;;
40471;SDS011;26174;42.908;23.800;2023-03-30T13:17:08;11.90;;;2.47;;
40471;SDS011;26174;42.908;23.800;2023-03-30T13:21:57;7.43;;;2.20;;
40471;SDS011;26174;42.908;23.800;2023-03-30T13:24:51;17.65;;;4.25;;
40471;SDS011;26174;42.908;23.800;2023-03-30T13:29:54;41.70;;;5.15;;
40471;SDS011;26174;42.908;23.800;2023-03-30T13:40:41;36.08;;;6.80;;
40471;SDS011;26174;42.908;23.800;2023-03-30T13:43:19;8.55;;;3.80;;
40471;SDS011;26174;42.908;23.800;2023-03-30T13:45:53;6.80;;;2.97;;
40471;SDS011;26174;42.908;23.800;2023-03-30T13:50:48;4.10;;;1.85;;
40471;SDS011;26174;42.908;23.800;2023-03-30T13:53:19;5.75;;;2.10;;
40471;SDS011;26174;42.908;23.800;2023-03-30T13:55:48;7.15;;;2.60;;
40471;SDS011;26174;42.908;23.800;2023-03-30T13:58:18;24.90;;;13.95;;
40471;SDS011;26174;42.908;23.800;2023-03-30T14:00:56;4.35;;;2.50;;
40471;SDS011;26174;42.908;23.800;2023-03-30T14:03:25;5.35;;;2.70;;
40471;SDS011;26174;42.908;23.800;2023-03-30T14:08:43;4.05;;;2.60;;
40471;SDS011;26174;42.908;23.800;2023-03-30T14:13:57;7.50;;;3.95;;
40471;SDS011;26174;42.908;23.800;2023-03-30T14:16:26;5.55;;;2.72;;
40471;SDS011;26174;42.908;23.800;2023-03-30T14:19:08;5.18;;;2.15;;
40471;SDS011;26174;42.908;23.800;2023-03-30T14:22:26;6.70;;;3.95;;
40471;SDS011;26174;42.908;23.800;2023-03-30T14:24:59;43.83;;;23.77;;
40471;SDS011;26174;42.908;23.800;2023-03-30T14:27:31;47.40;;;25.27;;
40471;SDS011;26174;42.908;23.800;2023-03-30T14:30:00;5.00;;;3.60;;
40471;SDS011;26174;42.908;23.800;2023-03-30T14:32:26;6.30;;;2.10;;
40471;SDS011;26174;42.908;23.800;2023-03-30T14:34:52;6.88;;;2.67;;
40471;SDS011;26174;42.908;23.800;2023-03-30T14:37:18;6.38;;;2.30;;
40471;SDS011;26174;42.908;23.800;2023-03-30T14:39:54;5.93;;;3.20;;
40471;SDS011;26174;42.908;23.800;2023-03-30T14:42:25;4.22;;;2.50;;
40471;SDS011;26174;42.908;23.800;2023-03-30T14:44:53;5.60;;;2.33;;
40471;SDS011;26174;42.908;23.800;2023-03-30T14:47:21;7.05;;;2.92;;
40471;SDS011;26174;42.908;23.800;2023-03-30T14:49:49;11.40;;;6.40;;
40471;SDS011;26174;42.908;23.800;2023-03-30T14:52:20;4.78;;;3.15;;
40471;SDS011;26174;42.908;23.800;2023-03-30T14:54:48;4.88;;;2.92;;
40471;SDS011;26174;42.908;23.800;2023-03-30T14:57:17;5.18;;;3.13;;
40471;SDS011;26174;42.908;23.800;2023-03-30T14:59:47;16.98;;;8.80;;
40471;SDS011;26174;42.908;23.800;2023-03-30T15:02:28;4.97;;;3.25;;
40471;SDS011;26174;42.908;23.800;2023-03-30T15:04:55;5.05;;;3.40;;
40471;SDS011;26174;42.908;23.800;2023-03-30T15:07:21;6.63;;;3.60;;
40471;SDS011;26174;42.908;23.800;2023-03-30T15:09:55;33.58;;;15.65;;
40471;SDS011;26174;42.908;23.800;2023-03-30T15:12:22;42.03;;;22.73;;
40471;SDS011;26174;42.908;23.800;2023-03-30T15:14:49;17.92;;;9.25;;
40471;SDS011;26174;42.908;23.800;2023-03-30T15:17:17;15.25;;;8.25;;
40471;SDS011;26174;42.908;23.800;2023-03-30T15:19:44;17.92;;;8.43;;
40471;SDS011;26174;42.908;23.800;2023-03-30T15:22:12;13.63;;;7.15;;
40471;SDS011;26174;42.908;23.800;2023-03-30T15:24:45;7.95;;;4.07;;
40471;SDS011;26174;42.908;23.800;2023-03-30T15:27:12;9.55;;;4.57;;
40471;SDS011;26174;42.908;23.800;2023-03-30T15:29:38;8.98;;;5.32;;
40471;SDS011;26174;42.908;23.800;2023-03-30T15:37:31;15.45;;;8.82;;
40471;SDS011;26174;42.908;23.800;2023-03-30T15:39:57;5.72;;;3.42;;
40471;SDS011;26174;42.908;23.800;2023-03-30T15:42:23;6.90;;;4.25;;
40471;SDS011;26174;42.908;23.800;2023-03-30T15:44:59;6.93;;;4.63;;
40471;SDS011;26174;42.908;23.800;2023-03-30T15:47:32;3.75;;;2.50;;
40471;SDS011;26174;42.908;23.800;2023-03-30T15:49:58;4.30;;;3.22;;
40471;SDS011;26174;42.908;23.800;2023-03-30T15:52:30;3.22;;;2.25;;
40471;SDS011;26174;42.908;23.800;2023-03-30T15:55:20;5.63;;;2.53;;
40471;SDS011;26174;42.908;23.800;2023-03-30T15:57:50;3.50;;;2.53;;
40471;SDS011;26174;42.908;23.800;2023-03-30T16:00:20;6.32;;;2.85;;
40471;SDS011;26174;42.908;23.800;2023-03-30T16:02:51;8.48;;;4.43;;
40471;SDS011;26174;42.908;23.800;2023-03-30T16:05:28;16.80;;;6.80;;
40471;SDS011;26174;42.908;23.800;2023-03-30T16:07:55;22.37;;;10.90;;
40471;SDS011;26174;42.908;23.800;2023-03-30T16:10:23;9.05;;;2.80;;
40471;SDS011;26174;42.908;23.800;2023-03-30T16:12:55;10.32;;;5.40;;
40471;SDS011;26174;42.908;23.800;2023-03-30T16:15:25;27.30;;;11.90;;
40471;SDS011;26174;42.908;23.800;2023-03-30T16:17:52;5.50;;;3.10;;
40471;SDS011;26174;42.908;23.800;2023-03-30T16:20:18;9.38;;;5.13;;
40471;SDS011;26174;42.908;23.800;2023-03-30T16:22:52;3.80;;;2.88;;
40471;SDS011;26174;42.908;23.800;2023-03-30T16:25:19;10.82;;;5.65;;
40471;SDS011;26174;42.908;23.800;2023-03-30T16:27:46;10.77;;;4.72;;
40471;SDS011;26174;42.908;23.800;2023-03-30T16:30:13;12.23;;;4.10;;
40471;SDS011;26174;42.908;23.800;2023-03-30T16:32:42;13.43;;;4.03;;
40471;SDS011;26174;42.908;23.800;2023-03-30T16:35:07;29.40;;;10.45;;
40471;SDS011;26174;42.908;23.800;2023-03-30T16:37:33;24.17;;;9.65;;
40471;SDS011;26174;42.908;23.800;2023-03-30T16:39:59;17.05;;;7.07;;
40471;SDS011;26174;42.908;23.800;2023-03-30T16:42:25;23.42;;;11.77;;
40471;SDS011;26174;42.908;23.800;2023-03-30T16:44:51;39.00;;;19.25;;
40471;SDS011;26174;42.908;23.800;2023-03-30T16:47:18;49.95;;;22.50;;
40471;SDS011;26174;42.908;23.800;2023-03-30T16:49:47;36.33;;;19.30;;
40471;SDS011;26174;42.908;23.800;2023-03-30T16:52:12;48.17;;;25.15;;
40471;SDS011;26174;42.908;23.800;2023-03-30T16:54:38;37.05;;;20.35;;
40471;SDS011;26174;42.908;23.800;2023-03-30T16:57:04;24.88;;;13.98;;
40471;SDS011;26174;42.908;23.800;2023-03-30T16:59:30;24.60;;;13.40;;
40471;SDS011;26174;42.908;23.800;2023-03-30T17:01:56;29.58;;;12.32;;
40471;SDS011;26174;42.908;23.800;2023-03-30T17:04:22;25.77;;;12.93;;
40471;SDS011;26174;42.908;23.800;2023-03-30T17:06:48;24.52;;;11.95;;
40471;SDS011;26174;42.908;23.800;2023-03-30T17:09:14;25.85;;;11.90;;
40471;SDS011;26174;42.908;23.800;2023-03-30T17:11:45;26.15;;;13.63;;
40471;SDS011;26174;42.908;23.800;2023-03-30T17:14:12;34.67;;;15.88;;
40471;SDS011;26174;42.908;23.800;2023-03-30T17:16:38;31.67;;;14.20;;
40471;SDS011;26174;42.908;23.800;2023-03-30T17:19:04;32.83;;;16.10;;
40471;SDS011;26174;42.908;23.800;2023-03-30T17:21:30;32.85;;;17.10;;
40471;SDS011;26174;42.908;23.800;2023-03-30T17:23:56;31.02;;;16.25;;
40471;SDS011;26174;42.908;23.800;2023-03-30T17:26:21;20.30;;;10.18;;
40471;SDS011;26174;42.908;23.800;2023-03-30T17:28:47;22.77;;;9.95;;